Terre Haute, IN (47803)

7:41 AM EST on February 28, 2017 (GMT -0500)
Lincolnshire | | Change Station

Elev 561 ft 39.46 °N, 87.35 °W | Updated 51 seconds ago

Overcast
Overcast
50.7 °F
Feels Like 50.7 °F
N
3.9
Wind Variable Wind from South
Gusts 5.3 mph

Today
High -- | Low -- °F
--% Chance of Precip.
Yesterday
High -- | Low -- °F
Precip. -- in
Pressure 29.96 in
Visibility 10.0 miles
Clouds Mostly Cloudy 1200 ft
Mostly Cloudy 1800 ft
Overcast 5000 ft
Dew Point 48 °F
Humidity 92%
Rainfall 0.02 in
Snow Depth Not available.
7:23 AM 6:40 PM
Waxing Crescent, 5% visible
SPECI KHUF 281228Z 17009KT 10SM BKN012 BKN018 OVC050 11/09 A2996 RMK AO2 RAB06E15 P0000 T01060089
Pressure 29.96 in
Visibility 10.0 miles
Clouds Mostly Cloudy 1200 ft
Mostly Cloudy 1800 ft
Overcast 5000 ft
Dew Point 48 °F
Humidity 92%
Rainfall 0.02 in
Snow Depth Not available.
7:23 AM 6:40 PM
Waxing Crescent, 5% visible
SPECI KHUF 281228Z 17009KT 10SM BKN012 BKN018 OVC050 11/09 A2996 RMK AO2 RAB06E15 P0000 T01060089

Get Your Daily Forecast Email!

Thanks for signing up!

Be on the lookout for a verification email in your inbox.

You'll start receiving the daily forecast at 8 AM.

×

10-Day Weather Forecast

Almanac

Astronomy

Feb. 28, 2017 Rise Set
Actual Time
Civil Twilight
Nautical Twilight
Astronomical Twilight
Moon
Length of Visible Light
Length of Day
Tomorrow will be .
, % of the Moon is Illuminated

Today's Extremes

State Highs State Lows

Community

WunderPhotos

Upload Photos

1,962,540 photos uploaded!

WunderBlog® & News

Nearby

Air Quality

  Air Quality AQ Index Pollutant
Not available.

Snow Depth

Station Depth Elevation

Earthquake Activity

City Distance Mag. Time & Date
Minimum magnitude displayed is 2.5.

Coastal Water Temperatures

Place Temperature

Stations

Nearby Weather Stations

Station Location Temp. Windchill Dew Point Humidity Wind Precip. Elev Updated Type
                   

Watches & Warnings

There are currently no watches in effect.